createdAt,value
2018-11-26T00:00:29.124Z,99.90
2018-11-26T00:03:16.566Z,99.90
2018-11-26T00:08:51.363Z,99.90
2018-11-26T00:11:44.381Z,99.90
2018-11-26T00:14:31.816Z,99.90
2018-11-26T00:17:13.350Z,99.90
2018-11-26T00:19:56.044Z,99.90
2018-11-26T00:22:46.814Z,99.90
2018-11-26T00:37:21.750Z,99.90
2018-11-26T00:43:12.394Z,99.90
2018-11-26T00:45:48.734Z,99.90
2018-11-26T00:48:34.574Z,99.90
2018-11-26T00:51:17.112Z,99.90
2018-11-26T00:53:57.265Z,99.90
2018-11-26T00:56:32.800Z,99.90
2018-11-26T00:59:08.503Z,99.90
2018-11-26T01:01:42.709Z,99.90
2018-11-26T01:04:16.531Z,99.90
2018-11-26T01:06:49.697Z,99.90
2018-11-26T01:09:24.504Z,99.90
2018-11-26T01:11:57.623Z,99.90
2018-11-26T01:17:58.516Z,99.90
2018-11-26T01:20:33.277Z,99.90
2018-11-26T01:23:13.277Z,99.90
2018-11-26T01:25:48.368Z,99.90
2018-11-26T01:28:26.956Z,99.90
2018-11-26T01:34:03.275Z,99.90
2018-11-26T01:36:35.682Z,99.90
2018-11-26T01:39:12.923Z,99.90
2018-11-26T01:41:46.908Z,99.90
2018-11-26T01:44:27.331Z,99.90
2018-11-26T01:47:00.564Z,99.90
2018-11-26T01:49:36.508Z,99.90
2018-11-26T01:55:12.181Z,99.90
2018-11-26T01:57:52.120Z,99.90
2018-11-26T02:00:35.233Z,99.90
2018-11-26T02:03:13.676Z,99.90
2018-11-26T02:08:30.526Z,99.90
2018-11-26T02:11:04.178Z,99.90
2018-11-26T02:13:38.422Z,99.90
2018-11-26T02:16:11.949Z,99.90
2018-11-26T02:18:46.541Z,99.90
2018-11-26T02:21:21.137Z,99.90
2018-11-26T02:23:53.923Z,99.90
2018-11-26T02:26:27.977Z,99.90
2018-11-26T02:29:01.204Z,99.90
2018-11-26T02:31:39.415Z,99.90
2018-11-26T02:37:35.196Z,99.90
2018-11-26T02:40:09.003Z,99.90
2018-11-26T02:42:42.485Z,99.90
2018-11-26T02:45:14.974Z,99.90
2018-11-26T02:47:48.471Z,99.90
2018-11-26T02:50:21.011Z,99.90
2018-11-26T02:52:54.238Z,99.90
2018-11-26T02:55:27.394Z,99.90
2018-11-26T02:58:00.759Z,99.90
2018-11-26T03:00:33.856Z,99.90
2018-11-26T03:03:06.988Z,99.90
2018-11-26T03:05:39.419Z,99.90
2018-11-26T03:08:12.979Z,99.90
2018-11-26T03:10:45.754Z,99.90
2018-11-26T03:13:28.157Z,99.90
2018-11-26T03:16:00.632Z,99.90
2018-11-26T03:18:33.816Z,99.90
2018-11-26T03:21:06.835Z,99.90
2018-11-26T03:23:41.028Z,99.90
2018-11-26T03:26:13.512Z,99.90
2018-11-26T03:32:08.572Z,99.90
2018-11-26T03:34:41.101Z,99.90
2018-11-26T03:37:17.920Z,99.90
2018-11-26T03:39:50.561Z,99.90
2018-11-26T03:42:23.869Z,99.90
2018-11-26T03:44:56.371Z,99.90
2018-11-26T03:47:35.754Z,99.90
2018-11-26T03:50:21.543Z,99.90
2018-11-26T03:53:09.641Z,99.90
2018-11-26T03:55:43.427Z,99.90
2018-11-26T03:58:18.902Z,99.90
2018-11-26T04:01:00.384Z,99.90
2018-11-26T04:03:36.016Z,99.90
2018-11-26T04:06:26.443Z,99.90
2018-11-26T04:12:19.635Z,99.90
2018-11-26T04:14:57.886Z,99.90
2018-11-26T04:17:43.505Z,99.90
2018-11-26T04:20:17.424Z,99.90
2018-11-26T04:22:51.156Z,99.90
2018-11-26T04:25:23.770Z,99.90
2018-11-26T04:27:56.259Z,99.90
2018-11-26T04:34:00.957Z,99.90
2018-11-26T04:36:35.408Z,99.90
2018-11-26T04:39:09.248Z,99.90
2018-11-26T04:41:41.640Z,99.90
2018-11-26T04:44:14.069Z,99.90
2018-11-26T04:46:46.412Z,99.90
2018-11-26T04:49:23.888Z,99.90
2018-11-26T04:51:56.216Z,99.90
2018-11-26T04:54:28.653Z,99.90
2018-11-26T04:57:22.602Z,99.90
2018-11-26T05:00:13.004Z,99.90
2018-11-26T05:02:45.824Z,99.90
2018-11-26T05:05:18.470Z,99.90
2018-11-26T05:07:51.557Z,99.90
2018-11-26T05:10:24.358Z,99.90
2018-11-26T05:12:56.843Z,99.90
2018-11-26T05:15:29.424Z,99.90
2018-11-26T05:18:01.860Z,99.90
2018-11-26T05:20:34.205Z,99.90
2018-11-26T05:23:06.623Z,99.90
2018-11-26T05:25:39.207Z,99.90
2018-11-26T05:28:12.213Z,99.90
2018-11-26T05:30:45.612Z,99.90
2018-11-26T05:33:18.326Z,99.90
2018-11-26T05:35:52.594Z,99.90
2018-11-26T05:38:25.021Z,99.90
2018-11-26T05:40:57.542Z,99.90
2018-11-26T05:43:30.849Z,99.90
2018-11-26T05:46:04.254Z,99.90
2018-11-26T05:52:08.007Z,99.90
2018-11-26T05:54:41.355Z,99.90
2018-11-26T05:57:14.646Z,99.90
2018-11-26T05:59:47.255Z,99.90
2018-11-26T06:02:23.556Z,99.90
2018-11-26T06:04:56.039Z,99.90
2018-11-26T06:07:28.457Z,99.90
2018-11-26T06:10:00.675Z,99.90
2018-11-26T06:12:32.942Z,99.90
2018-11-26T06:15:05.193Z,99.90
2018-11-26T06:17:37.510Z,99.90
2018-11-26T06:20:11.167Z,99.90
2018-11-26T06:22:44.361Z,99.90
2018-11-26T06:25:18.201Z,99.90
2018-11-26T06:27:50.575Z,99.90
2018-11-26T06:30:23.439Z,99.90
2018-11-26T06:32:55.733Z,99.90
2018-11-26T06:35:28.126Z,99.90
2018-11-26T06:38:00.808Z,99.90
2018-11-26T06:40:33.030Z,99.90
2018-11-26T06:43:05.240Z,99.90
2018-11-26T06:45:37.671Z,99.90
2018-11-26T06:48:10.122Z,99.90
2018-11-26T06:50:43.048Z,99.90
2018-11-26T06:53:15.378Z,99.90
2018-11-26T06:55:47.606Z,99.90
2018-11-26T06:58:19.913Z,99.90
2018-11-26T07:00:52.804Z,99.90
2018-11-26T07:03:25.079Z,99.90
2018-11-26T07:05:57.562Z,99.90
2018-11-26T07:08:30.649Z,99.90
2018-11-26T07:11:03.101Z,99.90
2018-11-26T07:13:35.349Z,99.90
2018-11-26T07:16:10.234Z,99.90
2018-11-26T07:18:42.650Z,99.90
2018-11-26T07:21:15.406Z,99.90
2018-11-26T07:23:49.941Z,99.90
2018-11-26T07:26:23.060Z,99.90
2018-11-26T07:28:55.335Z,99.90
2018-11-26T07:31:27.676Z,99.90
2018-11-26T07:37:31.782Z,99.90
2018-11-26T07:40:05.128Z,99.90
2018-11-26T07:42:37.955Z,99.90
2018-11-26T07:45:13.644Z,99.90
2018-11-26T07:47:46.472Z,99.90
2018-11-26T07:50:20.244Z,99.90
2018-11-26T07:52:53.910Z,99.90
2018-11-26T07:55:26.774Z,99.90
2018-11-26T07:58:00.292Z,99.90
2018-11-26T08:00:33.207Z,99.90
2018-11-26T08:03:06.190Z,99.90
2018-11-26T08:05:39.076Z,99.90
2018-11-26T08:08:14.828Z,99.90
2018-11-26T08:11:34.173Z,99.90
2018-11-26T08:14:06.624Z,99.90
2018-11-26T08:16:38.973Z,99.90
2018-11-26T08:19:11.301Z,99.90
2018-11-26T08:21:43.645Z,99.90
2018-11-26T08:24:15.977Z,99.90
2018-11-26T08:26:48.478Z,99.90
2018-11-26T08:29:21.082Z,99.90
2018-11-26T08:31:53.435Z,99.90
2018-11-26T08:34:25.778Z,99.90
2018-11-26T08:37:02.491Z,99.90
2018-11-26T08:39:38.196Z,99.90
2018-11-26T08:42:15.014Z,99.90
2018-11-26T08:44:48.188Z,99.90
2018-11-26T08:50:42.459Z,99.90
2018-11-26T08:53:14.954Z,99.90
2018-11-26T08:55:47.508Z,99.90
2018-11-26T08:58:20.023Z,99.90
2018-11-26T09:00:56.710Z,99.90
2018-11-26T09:03:33.531Z,99.90
2018-11-26T09:06:06.719Z,99.90
2018-11-26T09:08:40.023Z,99.90
2018-11-26T09:14:33.694Z,99.90
2018-11-26T09:17:05.862Z,99.90
2018-11-26T09:19:38.643Z,99.90
2018-11-26T09:22:10.856Z,99.90
2018-11-26T09:24:43.003Z,99.90
2018-11-26T09:27:15.153Z,99.90
2018-11-26T09:29:47.391Z,99.90
2018-11-26T09:32:19.512Z,99.90
2018-11-26T09:34:51.711Z,99.90
2018-11-26T09:40:55.220Z,99.90
2018-11-26T09:43:27.859Z,99.90
2018-11-26T09:46:00.187Z,99.90
2018-11-26T09:48:32.559Z,99.90
2018-11-26T09:51:05.496Z,99.90
2018-11-26T09:53:37.741Z,99.90
2018-11-26T09:56:10.960Z,99.90
2018-11-26T09:58:44.126Z,99.90
2018-11-26T10:04:39.001Z,99.90
2018-11-26T10:07:11.321Z,99.90
2018-11-26T10:09:43.694Z,99.90
2018-11-26T10:12:16.097Z,99.90
2018-11-26T10:14:48.494Z,99.90
2018-11-26T10:17:20.825Z,99.90
2018-11-26T10:19:53.159Z,99.90
2018-11-26T10:22:26.402Z,99.90
2018-11-26T10:25:05.629Z,99.90
2018-11-26T10:27:31.559Z,99.90
2018-11-26T10:30:03.900Z,99.90
2018-11-26T10:32:36.272Z,99.90
2018-11-26T10:35:09.308Z,99.90
2018-11-26T10:37:41.694Z,99.90
2018-11-26T10:40:18.876Z,99.90
2018-11-26T10:42:51.209Z,99.90
2018-11-26T10:45:24.714Z,99.90
2018-11-26T10:47:57.052Z,99.90
2018-11-26T10:50:30.440Z,99.90
2018-11-26T10:53:03.231Z,99.90
2018-11-26T10:55:37.746Z,99.90
2018-11-26T10:58:10.332Z,99.90
2018-11-26T11:00:46.354Z,99.90
2018-11-26T11:03:18.750Z,99.90
2018-11-26T11:05:51.110Z,99.90
2018-11-26T11:08:23.844Z,99.90
2018-11-26T11:10:56.039Z,99.90
2018-11-26T11:13:28.417Z,99.90
2018-11-26T11:16:00.934Z,99.90
2018-11-26T11:18:33.268Z,99.90
2018-11-26T11:21:06.414Z,99.90
2018-11-26T11:23:38.992Z,99.90
2018-11-26T11:29:32.776Z,99.90
2018-11-26T11:32:05.653Z,99.90
2018-11-26T11:34:38.546Z,99.90
2018-11-26T11:37:12.241Z,99.90
2018-11-26T11:39:47.957Z,99.90
2018-11-26T11:42:26.315Z,99.90
2018-11-26T11:45:01.709Z,99.90
2018-11-26T11:47:35.453Z,99.90
2018-11-26T11:50:10.037Z,99.90
2018-11-26T11:52:46.201Z,99.90
2018-11-26T11:55:23.204Z,99.90
2018-11-26T11:57:58.648Z,99.90
2018-11-26T12:00:50.053Z,99.90
2018-11-26T12:06:36.723Z,99.90
2018-11-26T12:09:12.578Z,99.90
2018-11-26T12:11:45.568Z,99.90
2018-11-26T12:14:18.439Z,99.90
2018-11-26T12:16:56.567Z,99.90
2018-11-26T12:19:29.572Z,99.90
2018-11-26T12:22:02.922Z,99.90
2018-11-26T12:24:37.022Z,99.90
2018-11-26T12:27:11.175Z,99.90
2018-11-26T12:29:43.892Z,99.90
2018-11-26T12:32:16.725Z,99.90
2018-11-26T12:34:53.709Z,99.90
2018-11-26T12:40:38.835Z,99.90
2018-11-26T12:43:16.347Z,99.90
2018-11-26T12:45:49.323Z,99.90
2018-11-26T12:48:23.566Z,99.90
2018-11-26T12:50:58.830Z,99.90
2018-11-26T12:53:31.621Z,99.90
2018-11-26T12:56:04.406Z,99.90
2018-11-26T12:58:37.206Z,99.90
2018-11-26T13:01:14.687Z,99.90
2018-11-26T13:03:50.080Z,99.90
2018-11-26T13:06:24.602Z,99.90
2018-11-26T13:09:00.377Z,99.90
2018-11-26T13:11:34.270Z,99.90
2018-11-26T13:14:07.260Z,99.90
2018-11-26T13:16:43.479Z,99.90
2018-11-26T13:19:19.390Z,99.90
2018-11-26T13:21:52.290Z,99.90
2018-11-26T13:24:26.140Z,99.90
2018-11-26T13:26:58.912Z,99.90
2018-11-26T13:32:55.469Z,99.90
2018-11-26T13:35:27.785Z,99.90
2018-11-26T13:38:00.129Z,99.90
2018-11-26T13:40:38.533Z,99.90
2018-11-26T13:43:14.006Z,99.90
2018-11-26T13:52:33.847Z,99.90
2018-11-26T13:55:06.557Z,99.90
2018-11-26T13:57:40.504Z,99.90
2018-11-26T14:03:44.579Z,99.90
2018-11-26T14:06:17.830Z,99.90
2018-11-26T14:08:50.814Z,99.90
2018-11-26T14:11:24.684Z,99.90
2018-11-26T14:13:57.800Z,99.90
2018-11-26T14:16:30.899Z,99.90
2018-11-26T14:19:06.359Z,99.90
2018-11-26T14:21:41.988Z,99.90
2018-11-26T14:24:15.465Z,99.90
2018-11-26T14:26:49.450Z,99.90
2018-11-26T14:29:22.420Z,99.90
2018-11-26T14:31:55.482Z,99.90
2018-11-26T14:34:28.286Z,99.20
2018-11-26T14:37:01.529Z,98.30
2018-11-26T14:39:34.592Z,94.80
2018-11-26T14:42:07.720Z,93.50
2018-11-26T14:44:40.860Z,92.30
2018-11-26T14:47:14.900Z,91.70
2018-11-26T14:49:49.601Z,90.70
2018-11-26T14:52:23.798Z,91.30
2018-11-26T14:54:56.870Z,91.90
2018-11-26T14:57:30.754Z,88.00
2018-11-26T15:00:04.412Z,86.20
2018-11-26T15:02:37.299Z,87.40
2018-11-26T15:05:12.228Z,89.80
2018-11-26T15:07:45.260Z,87.50
2018-11-26T15:10:21.244Z,90.30
2018-11-26T15:12:54.647Z,91.00
2018-11-26T15:15:30.671Z,87.70
2018-11-26T15:18:06.013Z,81.90
2018-11-26T15:20:38.955Z,78.80
2018-11-26T15:23:12.977Z,80.30
2018-11-26T15:25:45.991Z,77.50
2018-11-26T15:28:19.328Z,79.80
2018-11-26T15:30:55.635Z,81.10
2018-11-26T15:33:29.704Z,87.30
2018-11-26T15:36:02.701Z,90.20
2018-11-26T15:38:35.756Z,88.40
2018-11-26T15:41:08.779Z,88.80
2018-11-26T15:43:47.757Z,86.70
2018-11-26T15:46:20.906Z,84.50
2018-11-26T15:48:54.278Z,81.30
2018-11-26T15:51:27.124Z,79.90
2018-11-26T15:54:00.555Z,77.40
2018-11-26T15:56:35.194Z,78.30
2018-11-26T15:59:09.223Z,73.90
2018-11-26T16:01:42.258Z,69.60
2018-11-26T16:04:23.108Z,71.80
2018-11-26T16:06:56.658Z,69.70
2018-11-26T16:12:16.938Z,68.20
2018-11-26T16:14:50.075Z,70.90
2018-11-26T16:17:26.185Z,69.00
2018-11-26T16:20:00.717Z,66.70
2018-11-26T16:22:35.810Z,67.20
2018-11-26T16:25:25.482Z,67.90
2018-11-26T16:28:02.354Z,67.70
2018-11-26T16:30:55.619Z,67.30
2018-11-26T16:33:30.411Z,67.70
2018-11-26T16:36:06.983Z,65.80
2018-11-26T16:38:40.296Z,67.00
2018-11-26T16:41:13.986Z,65.20
2018-11-26T16:43:47.107Z,65.30
2018-11-26T16:46:20.459Z,66.40
2018-11-26T16:48:53.304Z,66.90
2018-11-26T16:51:26.650Z,67.60
2018-11-26T16:54:01.981Z,67.80
2018-11-26T16:56:38.769Z,67.50
2018-11-26T16:59:11.673Z,66.10
2018-11-26T17:05:15.545Z,67.00
2018-11-26T17:07:53.343Z,64.50
2018-11-26T17:13:47.782Z,64.70
2018-11-26T17:16:20.223Z,66.10
2018-11-26T17:19:01.040Z,64.70
2018-11-26T17:21:46.805Z,62.60
2018-11-26T17:24:21.537Z,60.70
2018-11-26T17:26:54.417Z,61.50
2018-11-26T17:29:51.973Z,60.00
2018-11-26T17:32:52.432Z,59.70
2018-11-26T17:56:45.993Z,59.50
2018-11-26T17:59:28.886Z,59.70
2018-11-26T18:02:23.047Z,58.30
2018-11-26T18:05:00.372Z,58.50
2018-11-26T18:07:42.118Z,59.60
2018-11-26T18:10:36.985Z,58.80
2018-11-26T18:13:13.886Z,59.90
2018-11-26T18:18:41.431Z,57.40
2018-11-26T18:21:26.806Z,58.40
2018-11-26T18:24:00.853Z,58.00
2018-11-26T18:26:37.814Z,59.10
2018-11-26T18:29:15.690Z,59.50
2018-11-26T18:31:55.937Z,58.80
2018-11-26T18:34:28.972Z,58.60
2018-11-26T18:37:12.644Z,59.10
2018-11-26T18:39:47.606Z,58.70
2018-11-26T18:42:20.657Z,58.70
2018-11-26T18:44:53.459Z,59.40
2018-11-26T18:47:27.678Z,58.80
2018-11-26T18:50:00.683Z,60.20
2018-11-26T18:52:36.603Z,58.30
2018-11-26T18:55:11.823Z,59.40
2018-11-26T18:57:44.582Z,60.50
2018-11-26T19:00:20.259Z,57.60
2018-11-26T19:02:54.807Z,58.90
2018-11-26T19:05:57.559Z,60.00
2018-11-26T19:08:32.915Z,60.50
2018-11-26T19:11:10.888Z,59.80
2018-11-26T19:13:54.571Z,58.80
2018-11-26T19:16:33.697Z,57.10
2018-11-26T19:19:08.792Z,57.20
2018-11-26T19:21:43.020Z,58.70
2018-11-26T19:24:21.256Z,57.60
2018-11-26T19:26:59.107Z,57.90
2018-11-26T19:29:40.068Z,55.80
2018-11-26T19:32:12.523Z,57.80
2018-11-26T19:34:45.959Z,58.10
2018-11-26T19:37:18.403Z,58.80
2018-11-26T19:39:55.298Z,59.20
2018-11-26T19:42:28.476Z,58.90
2018-11-26T19:45:02.732Z,58.60
2018-11-26T19:47:36.160Z,58.80
2018-11-26T19:50:13.436Z,58.20
2018-11-26T19:52:46.828Z,58.90
2018-11-26T19:55:21.185Z,58.90
2018-11-26T19:57:57.114Z,59.30
2018-11-26T20:00:35.681Z,58.70
2018-11-26T20:03:22.030Z,59.00
2018-11-26T20:06:14.857Z,58.20
2018-11-26T20:08:55.844Z,59.10
2018-11-26T20:11:33.511Z,57.00
2018-11-26T20:14:21.296Z,58.30
2018-11-26T20:16:56.778Z,57.70
2018-11-26T20:19:35.535Z,58.10
2018-11-26T20:22:20.061Z,59.80
2018-11-26T20:25:07.141Z,57.60
2018-11-26T20:27:58.087Z,57.20
2018-11-26T20:30:31.071Z,57.80
2018-11-26T20:33:04.950Z,58.90
2018-11-26T20:35:38.030Z,59.30
2018-11-26T20:38:12.704Z,60.00
2018-11-26T20:40:46.893Z,60.60
2018-11-26T20:46:42.118Z,59.90
2018-11-26T20:49:14.778Z,57.70
2018-11-26T20:51:48.041Z,53.60
2018-11-26T20:54:21.615Z,52.10
2018-11-26T20:56:54.230Z,53.00
2018-11-26T20:59:26.928Z,53.50
2018-11-26T21:02:47.878Z,53.20
2018-11-26T21:05:43.511Z,56.80
2018-11-26T21:08:24.375Z,60.20
2018-11-26T21:12:10.554Z,59.10
2018-11-26T21:14:55.878Z,58.40
2018-11-26T21:17:49.903Z,59.20
2018-11-26T21:23:57.007Z,59.30
2018-11-26T21:26:32.054Z,62.10
2018-11-26T21:29:19.297Z,62.40
2018-11-26T21:31:55.282Z,63.70
2018-11-26T21:34:31.769Z,67.30
2018-11-26T21:37:07.811Z,70.40
2018-11-26T21:39:42.200Z,73.10
2018-11-26T21:42:16.981Z,74.60
2018-11-26T21:44:51.943Z,75.00
2018-11-26T21:47:29.552Z,75.20
2018-11-26T21:50:04.839Z,75.40
2018-11-26T21:52:38.138Z,76.30
2018-11-26T21:55:19.517Z,76.70
2018-11-26T21:57:59.086Z,78.50
2018-11-26T22:00:45.480Z,79.30
2018-11-26T22:03:18.909Z,78.90
2018-11-26T22:05:53.349Z,79.30
2018-11-26T22:08:29.898Z,80.10
2018-11-26T22:11:05.221Z,80.70
2018-11-26T22:13:42.750Z,80.50
2018-11-26T22:16:22.154Z,80.20
2018-11-26T22:19:07.171Z,80.90
2018-11-26T22:21:41.951Z,81.00
2018-11-26T22:24:19.934Z,81.60
2018-11-26T22:27:04.023Z,81.50
2018-11-26T22:32:34.473Z,80.40
2018-11-26T22:35:16.525Z,80.30
2018-11-26T22:38:25.284Z,81.20
2018-11-26T22:40:58.859Z,81.30
2018-11-26T22:43:31.423Z,82.20
2018-11-26T22:46:08.336Z,83.80
2018-11-26T22:48:44.897Z,84.50
2018-11-26T22:51:19.092Z,85.40
2018-11-26T22:53:53.420Z,85.20
2018-11-26T22:59:49.532Z,85.30
2018-11-26T23:02:30.780Z,85.90
2018-11-26T23:05:11.694Z,85.10
2018-11-26T23:07:57.283Z,85.20
2018-11-26T23:10:45.479Z,84.80
2018-11-26T23:13:36.236Z,85.90
2018-11-26T23:16:24.146Z,85.70
2018-11-26T23:19:12.825Z,86.50
2018-11-26T23:38:37.892Z,89.30
2018-11-26T23:41:14.560Z,89.00
2018-11-26T23:43:59.554Z,89.80
2018-11-26T23:47:38.463Z,90.20
2018-11-26T23:53:13.875Z,90.50
2018-11-26T23:55:50.293Z,90.60
2018-11-26T23:58:25.587Z,90.50
